Time;durP1;ratioP1;P1;durP2;ratioP2;P2;SDS_P1;SDS_P2;PMS_P1;PMS_P2;Temp;Humidity;BMP_temperature;BMP_pressure;BME280_temperature;BME280_humidity;BME280_pressure;Samples;Min_cycle;Max_cycle;Signal;HPM_P1;HPM_P2
2022/09/18 00:00:57;;;;;;;0.43;0.13;;;;;;;10.97;61.17;99697.94;4955561;28;97856;-64
2022/09/18 00:03:23;;;;;;;0.50;0.10;;;;;;;10.94;61.29;99690.41;4945330;28;98141;-65
2022/09/18 00:05:53;;;;;;;0.73;0.20;;;;;;;10.95;60.79;99691.22;4921892;28;119023;-70
2022/09/18 00:08:19;;;;;;;0.50;0.20;;;;;;;10.93;61.54;99696.91;4949733;28;98014;-64
2022/09/18 00:10:45;;;;;;;1.10;0.20;;;;;;;10.92;61.34;99692.59;4928550;28;98416;-65
2022/09/18 00:13:13;;;;;;;0.70;0.20;;;;;;;10.91;61.30;99700.97;4945678;28;98058;-64
2022/09/18 00:15:39;;;;;;;0.43;0.10;;;;;;;10.88;61.15;99702.34;4959830;28;98327;-65
2022/09/18 00:18:06;;;;;;;0.55;0.10;;;;;;;10.87;61.41;99695.34;4912317;28;114991;-70
2022/09/18 00:20:36;;;;;;;0.85;0.20;;;;;;;10.88;61.36;99691.56;4939198;28;98368;-71
2022/09/18 00:23:02;;;;;;;1.15;0.20;;;;;;;10.91;61.94;99690.19;4922790;28;98006;-71
2022/09/18 00:25:30;;;;;;;2.25;0.20;;;;;;;10.93;61.56;99686.13;4922466;28;98178;-70
2022/09/18 00:27:57;;;;;;;1.00;0.25;;;;;;;10.94;61.72;99701.22;4933886;28;98033;-64
2022/09/18 00:30:23;;;;;;;0.60;0.20;;;;;;;10.96;62.17;99707.09;4927571;28;99833;-64
2022/09/18 00:32:50;;;;;;;0.60;0.20;;;;;;;10.96;61.93;99692.81;4928226;28;117089;-71
2022/09/18 00:35:16;;;;;;;0.82;0.20;;;;;;;10.94;61.91;99698.50;4961282;28;97885;-64
2022/09/18 00:37:42;;;;;;;0.73;0.13;;;;;;;10.92;62.15;99703.38;4941067;28;128282;-64
2022/09/18 00:40:09;;;;;;;0.30;0.10;;;;;;;10.93;61.76;99698.81;4945528;28;99875;-71
2022/09/18 00:42:36;;;;;;;1.17;0.20;;;;;;;10.93;62.09;99696.91;4943626;28;98019;-64
2022/09/18 00:45:03;;;;;;;0.80;0.10;;;;;;;10.94;62.22;99698.50;4938646;28;98368;-64
2022/09/18 00:47:47;;;;;;;0.50;0.10;;;;;;;10.94;61.71;99692.31;4936983;28;98118;-64
2022/09/18 00:50:23;;;;;;;0.40;0.10;;;;;;;10.90;61.86;99686.69;4919636;28;100132;-71
2022/09/18 00:53:01;;;;;;;0.45;0.15;;;;;;;10.89;61.77;99679.69;4933310;28;98170;-71
2022/09/18 00:55:33;;;;;;;0.30;0.10;;;;;;;10.91;62.22;99691.00;4919681;28;98158;-65
2022/09/18 00:58:00;;;;;;;0.68;0.10;;;;;;;10.92;62.44;99689.88;4937140;28;114801;-65
2022/09/18 01:00:26;;;;;;;0.77;0.10;;;;;;;10.93;62.52;99682.63;4944851;28;101216;-65
2022/09/18 01:02:52;;;;;;;0.88;0.20;;;;;;;10.95;62.47;99683.13;4930505;28;98040;-64
2022/09/18 01:05:40;;;;;;;0.68;0.10;;;;;;;10.94;62.12;99684.22;4946203;28;98201;-70
2022/09/18 01:08:13;;;;;;;0.20;0.00;;;;;;;10.93;62.45;99685.31;4933295;28;98781;-70
2022/09/18 01:10:49;;;;;;;0.47;0.10;;;;;;;10.92;61.75;99689.09;4980067;28;98381;-71
2022/09/18 01:13:44;;;;;;;0.35;0.10;;;;;;;10.93;62.20;99693.41;4963203;28;101833;-65
2022/09/18 01:16:35;;;;;;;0.20;0.05;;;;;;;10.92;61.95;99695.28;4930354;28;98605;-72
2022/09/18 01:19:31;;;;;;;0.55;0.10;;;;;;;10.92;62.32;99695.28;4961752;28;98609;-65
2022/09/18 01:22:21;;;;;;;0.30;0.10;;;;;;;10.90;62.03;99702.88;4951200;28;98572;-72
2022/09/18 01:25:07;;;;;;;0.68;0.10;;;;;;;10.91;62.31;99701.78;4949766;28;98377;-66
2022/09/18 01:27:45;;;;;;;0.10;0.00;;;;;;;10.93;62.88;99702.31;4900816;28;98263;-65
2022/09/18 01:30:11;;;;;;;0.20;0.10;;;;;;;10.92;62.91;99703.38;4940803;28;112425;-64
2022/09/18 01:32:41;;;;;;;0.30;0.05;;;;;;;10.92;62.77;99700.69;4928858;28;127901;-71
2022/09/18 01:35:16;;;;;;;0.13;0.10;;;;;;;10.90;62.58;99688.59;4964189;28;98088;-65
2022/09/18 01:37:58;;;;;;;0.20;0.00;;;;;;;10.90;62.67;99700.19;4922096;28;97784;-65
2022/09/18 01:40:30;;;;;;;0.45;0.00;;;;;;;10.90;62.74;99700.19;4899961;28;98070;-65
2022/09/18 01:43:01;;;;;;;0.17;0.00;;;;;;;10.90;62.71;99694.78;4931252;28;98515;-72
2022/09/18 01:45:33;;;;;;;0.20;0.00;;;;;;;10.92;62.90;99700.69;4927330;28;98023;-72
2022/09/18 01:48:04;;;;;;;1.00;0.00;;;;;;;10.91;62.91;99703.66;4957847;28;97816;-72
2022/09/18 01:50:34;;;;;;;0.38;0.08;;;;;;;10.90;63.21;99691.28;4922701;28;97931;-65
2022/09/18 01:53:28;;;;;;;1.00;0.00;;;;;;;10.88;62.29;99699.66;4935462;28;99554;-65
2022/09/18 01:56:10;;;;;;;0.38;0.00;;;;;;;10.89;62.59;99695.88;4916365;28;111197;-64
2022/09/18 01:58:37;;;;;;;0.00;0.00;;;;;;;10.92;63.40;99699.88;4904387;28;98088;-71
2022/09/18 02:01:11;;;;;;;1.08;0.00;;;;;;;10.92;63.15;99703.38;4905597;28;98371;-71
2022/09/18 02:03:48;;;;;;;0.40;0.05;;;;;;;10.91;63.03;99707.16;4930859;28;98184;-72
2022/09/18 02:06:25;;;;;;;0.45;0.00;;;;;;;10.91;63.41;99709.88;4940331;28;97930;-72
2022/09/18 02:08:55;;;;;;;0.20;0.03;;;;;;;10.88;62.98;99713.13;4931881;28;97904;-66
2022/09/18 02:11:22;;;;;;;1.17;0.10;;;;;;;10.86;63.41;99707.22;4928214;28;97924;-71
2022/09/18 02:14:12;;;;;;;0.10;0.00;;;;;;;10.85;63.10;99710.22;4930496;28;98254;-65
2022/09/18 02:16:51;;;;;;;0.52;0.10;;;;;;;10.85;62.80;99705.63;4942611;28;97892;-65
2022/09/18 02:19:30;;;;;;;0.50;0.10;;;;;;;10.82;63.06;99707.00;4943113;28;97964;-65
2022/09/18 02:22:00;;;;;;;0.47;0.10;;;;;;;10.83;63.54;99710.50;4953426;28;120259;-72
2022/09/18 02:24:29;;;;;;;0.35;0.10;;;;;;;10.81;63.33;99708.09;4945109;28;100268;-71
2022/09/18 02:26:55;;;;;;;1.45;0.10;;;;;;;10.83;63.30;99710.50;4928623;28;98001;-65
2022/09/18 02:29:22;;;;;;;2.50;0.10;;;;;;;10.82;63.71;99703.50;4926053;28;100914;-66
2022/09/18 02:31:49;;;;;;;1.45;0.10;;;;;;;10.82;63.96;99720.47;4940470;28;107973;-65
2022/09/18 02:34:15;;;;;;;0.63;0.20;;;;;;;10.79;64.05;99707.56;4914964;28;97930;-65
2022/09/18 02:37:08;;;;;;;0.28;0.10;;;;;;;10.79;63.31;99709.47;4924531;28;127855;-73
2022/09/18 02:39:57;;;;;;;;;;;;;;;10.78;63.12;99718.66;4965561;28;97878;-66
2022/09/18 02:42:41;;;;;;;1.42;0.10;;;;;;;10.82;63.76;99711.59;4931527;28;97892;-72
2022/09/18 02:45:40;;;;;;;0.50;0.10;;;;;;;10.85;63.35;99708.34;4979147;28;98063;-72
2022/09/18 02:48:40;;;;;;;0.30;0.05;;;;;;;10.92;63.30;99706.06;4928811;28;98187;-72
2022/09/18 02:51:19;;;;;;;0.77;0.13;;;;;;;10.94;63.21;99709.28;4970949;28;98284;-73
2022/09/18 02:54:10;;;;;;;0.85;0.10;;;;;;;10.96;63.43;99714.38;4954748;27;100121;-72
2022/09/18 02:56:56;;;;;;;0.55;0.10;;;;;;;10.98;63.22;99710.31;4955751;28;122885;-66
2022/09/18 02:59:37;;;;;;;1.42;0.10;;;;;;;11.00;63.33;99710.03;4925513;28;97941;-72
2022/09/18 03:02:04;;;;;;;0.50;0.10;;;;;;;11.01;63.78;99703.56;4944135;28;97918;-65
2022/09/18 03:04:30;;;;;;;0.30;0.08;;;;;;;11.02;63.92;99705.16;4910845;28;97948;-66
2022/09/18 03:06:56;;;;;;;1.45;0.10;;;;;;;11.03;63.84;99712.16;4923303;28;128096;-66
2022/09/18 03:09:24;;;;;;;0.47;0.10;;;;;;;11.01;63.96;99714.34;4928616;28;98903;-65
2022/09/18 03:11:52;;;;;;;0.30;0.00;;;;;;;11.00;64.35;99729.72;4946659;28;97949;-73
2022/09/18 03:14:20;;;;;;;0.28;0.00;;;;;;;11.03;64.20;99728.34;4928895;28;98156;-71
2022/09/18 03:16:48;;;;;;;0.45;0.10;;;;;;;11.02;64.00;99729.44;4939901;28;97885;-72
2022/09/18 03:19:16;;;;;;;0.50;0.10;;;;;;;11.02;63.85;99734.81;4933614;28;98204;-65
2022/09/18 03:21:42;;;;;;;2.13;0.10;;;;;;;11.03;64.18;99742.63;4927576;28;98153;-66
2022/09/18 03:24:15;;;;;;;0.95;0.10;;;;;;;11.03;63.84;99744.50;4926906;28;98711;-72
2022/09/18 03:26:42;;;;;;;0.40;0.10;;;;;;;11.04;64.29;99749.63;4893922;28;100352;-72
2022/09/18 03:29:09;;;;;;;0.30;0.00;;;;;;;11.06;64.22;99760.13;4882800;28;98902;-65
2022/09/18 03:31:35;;;;;;;0.68;0.10;;;;;;;11.05;63.98;99766.63;4925690;28;98014;-65
2022/09/18 03:34:01;;;;;;;1.85;0.15;;;;;;;11.03;63.85;99758.00;4909478;28;97965;-66
2022/09/18 03:36:31;;;;;;;0.28;0.05;;;;;;;11.03;63.98;99769.59;4906918;28;100334;-71
2022/09/18 03:39:00;;;;;;;0.40;0.10;;;;;;;11.04;64.12;99763.13;4904089;28;98108;-72
2022/09/18 03:41:26;;;;;;;4.40;0.10;;;;;;;11.02;64.07;99765.28;4907391;28;97990;-72
2022/09/18 03:43:53;;;;;;;0.35;0.10;;;;;;;11.00;64.57;99764.78;4905581;28;99608;-72
2022/09/18 03:46:23;;;;;;;0.52;0.10;;;;;;;11.01;64.23;99773.69;4924561;28;100142;-65
2022/09/18 03:48:52;;;;;;;1.40;0.13;;;;;;;11.00;64.11;99772.06;4904671;28;97905;-71
2022/09/18 03:51:22;;;;;;;0.68;0.30;;;;;;;11.00;64.51;99780.13;4923464;28;97883;-72
2022/09/18 03:53:50;;;;;;;0.35;0.10;;;;;;;10.98;64.48;99775.03;4903814;28;98280;-65
2022/09/18 03:56:16;;;;;;;3.30;0.20;;;;;;;10.97;64.05;99776.16;4922667;28;97955;-72
2022/09/18 03:58:43;;;;;;;0.60;0.10;;;;;;;10.95;64.48;99794.50;4886754;28;97935;-65
2022/09/18 04:01:09;;;;;;;1.77;0.10;;;;;;;10.95;64.26;99791.00;4904952;28;98087;-66
2022/09/18 04:03:39;;;;;;;1.38;0.20;;;;;;;10.93;63.84;99790.50;4908231;28;98569;-71
2022/09/18 04:06:10;;;;;;;2.65;0.30;;;;;;;10.90;64.17;99799.94;4907243;28;98270;-72
2022/09/18 04:08:37;;;;;;;1.08;0.20;;;;;;;10.89;64.12;99802.94;4894006;28;97962;-65
2022/09/18 04:11:04;;;;;;;0.88;0.10;;;;;;;10.89;64.48;99805.63;4907130;28;98148;-71
2022/09/18 04:13:32;;;;;;;1.13;0.20;;;;;;;10.86;64.43;99812.38;4895775;28;98085;-70
2022/09/18 04:15:59;;;;;;;1.35;0.15;;;;;;;10.86;64.61;99817.78;4889856;28;97842;-65
2022/09/18 04:18:25;;;;;;;4.68;0.30;;;;;;;10.83;64.11;99818.34;4925923;28;99609;-65
2022/09/18 04:20:51;;;;;;;1.17;0.30;;;;;;;10.84;64.55;99830.72;4897822;28;97966;-65
2022/09/18 04:23:19;;;;;;;1.15;0.20;;;;;;;10.83;64.49;99818.34;4908211;28;99128;-70
2022/09/18 04:25:46;;;;;;;0.90;0.15;;;;;;;10.78;64.39;99835.38;4892261;28;98052;-69
2022/09/18 04:28:13;;;;;;;2.05;0.30;;;;;;;10.79;64.25;99841.56;4931459;28;99316;-63
2022/09/18 04:30:39;;;;;;;1.58;0.30;;;;;;;10.77;64.20;99846.44;4899978;28;108941;-64
2022/09/18 04:33:06;;;;;;;3.53;0.50;;;;;;;10.75;64.27;99846.72;4936138;28;129460;-63
2022/09/18 04:35:33;;;;;;;0.98;0.20;;;;;;;10.71;64.17;99848.38;4916517;28;99049;-69
2022/09/18 04:37:59;;;;;;;0.68;0.17;;;;;;;10.72;64.23;99854.56;4936725;28;98398;-69
2022/09/18 04:40:26;;;;;;;2.10;0.40;;;;;;;10.72;64.59;99855.38;4916280;28;97961;-69
2022/09/18 04:42:52;;;;;;;1.00;0.20;;;;;;;10.70;64.40;99852.16;4940758;28;97966;-63
2022/09/18 04:45:19;;;;;;;2.25;0.40;;;;;;;10.72;64.48;99862.66;4921777;28;107101;-69
2022/09/18 04:47:47;;;;;;;2.72;0.47;;;;;;;10.70;64.03;99862.94;4917576;28;117386;-69
2022/09/18 04:50:14;;;;;;;1.52;0.40;;;;;;;10.68;64.55;99865.09;4926769;28;98278;-69
2022/09/18 04:52:43;;;;;;;0.80;0.20;;;;;;;10.67;64.23;99860.00;4936525;28;98069;-69
2022/09/18 04:55:09;;;;;;;4.07;0.20;;;;;;;10.66;64.57;99866.50;4925001;28;99659;-69
2022/09/18 04:57:35;;;;;;;3.35;0.52;;;;;;;10.65;64.58;99876.47;4920783;28;97941;-64
2022/09/18 05:00:05;;;;;;;3.40;0.28;;;;;;;10.65;64.56;99873.78;4908982;28;97963;-70
2022/09/18 05:02:31;;;;;;;1.85;0.30;;;;;;;10.64;64.59;99882.91;4923995;28;98316;-63
2022/09/18 05:04:57;;;;;;;3.28;0.32;;;;;;;10.63;64.60;99894.00;4920052;28;130623;-64
2022/09/18 05:07:23;;;;;;;1.00;0.20;;;;;;;10.62;64.53;99895.09;4913213;28;118365;-69
2022/09/18 05:09:50;;;;;;;0.70;0.25;;;;;;;10.65;64.45;99897.19;4905566;28;99028;-69
2022/09/18 05:12:17;;;;;;;2.50;0.30;;;;;;;10.65;64.55;99898.03;4910326;28;98268;-63
2022/09/18 05:14:43;;;;;;;2.85;0.43;;;;;;;10.66;64.36;99904.22;4892038;28;98147;-63
2022/09/18 05:17:10;;;;;;;1.23;0.30;;;;;;;10.66;64.40;99902.34;4925370;28;98693;-69
2022/09/18 05:19:38;;;;;;;1.58;0.40;;;;;;;10.64;64.46;99901.78;4921863;28;98370;-69
2022/09/18 05:22:04;;;;;;;2.40;0.40;;;;;;;10.65;64.46;99898.03;4953501;28;97909;-63
2022/09/18 05:24:30;;;;;;;3.63;0.50;;;;;;;10.64;64.59;99899.09;4908957;28;99877;-63
2022/09/18 05:26:57;;;;;;;1.75;0.40;;;;;;;10.65;64.48;99906.13;4940026;28;112599;-69
2022/09/18 05:29:26;;;;;;;3.90;0.47;;;;;;;10.65;64.24;99903.41;4961586;28;98012;-69
2022/09/18 05:31:54;;;;;;;1.98;0.32;;;;;;;10.65;64.49;99910.69;4946280;28;98799;-69
2022/09/18 05:34:21;;;;;;;1.58;0.50;;;;;;;10.64;64.37;99909.88;4943933;28;97805;-69
2022/09/18 05:36:48;;;;;;;2.33;0.50;;;;;;;10.64;64.66;99922.56;4949120;28;99770;-69
2022/09/18 05:39:15;;;;;;;1.15;0.30;;;;;;;10.64;64.13;99922.56;4907922;28;97967;-69
2022/09/18 05:41:41;;;;;;;0.90;0.30;;;;;;;10.64;64.43;99926.03;4957027;28;98199;-69
2022/09/18 05:44:09;;;;;;;2.17;0.30;;;;;;;10.63;64.04;99923.66;4910332;28;99550;-70
2022/09/18 05:46:36;;;;;;;2.15;0.30;;;;;;;10.65;64.06;99929.53;4924952;28;99423;-70
2022/09/18 05:49:05;;;;;;;6.25;0.47;;;;;;;10.66;64.08;99923.09;4908884;28;98121;-69
2022/09/18 05:51:32;;;;;;;2.75;0.40;;;;;;;10.72;64.18;99921.94;4910520;28;99011;-69
2022/09/18 05:53:59;;;;;;;1.02;0.30;;;;;;;10.79;63.91;99930.53;4940559;28;98572;-69
2022/09/18 05:56:26;;;;;;;3.67;0.50;;;;;;;10.85;63.31;99929.41;4957104;28;99602;-69
2022/09/18 05:58:53;;;;;;;0.93;0.40;;;;;;;10.87;63.70;99915.66;4954408;28;98194;-70
2022/09/18 06:01:19;;;;;;;3.63;0.50;;;;;;;10.91;63.64;99922.88;4946275;28;98057;-63
2022/09/18 06:03:49;;;;;;;1.23;0.30;;;;;;;11.00;63.43;99925.78;4926817;28;127389;-63
2022/09/18 06:06:16;;;;;;;0.82;0.25;;;;;;;11.02;63.74;99937.91;4941683;28;98014;-63
2022/09/18 06:08:42;;;;;;;2.00;0.40;;;;;;;11.06;63.63;99930.84;4907403;28;98761;-63
2022/09/18 06:11:08;;;;;;;4.03;0.20;;;;;;;11.12;63.60;99930.78;4943664;28;116852;-69
2022/09/18 06:13:36;;;;;;;2.35;0.22;;;;;;;11.18;63.25;99932.38;4904839;28;98279;-69
2022/09/18 06:16:02;;;;;;;2.08;0.20;;;;;;;11.22;63.47;99936.91;4926680;28;97882;-68
2022/09/18 06:18:28;;;;;;;3.65;0.20;;;;;;;11.32;63.38;99946.81;4927574;28;98113;-69
2022/09/18 06:20:56;;;;;;;1.52;0.38;;;;;;;11.40;63.26;99940.00;4954547;28;99724;-69
2022/09/18 06:23:24;;;;;;;0.95;0.10;;;;;;;11.44;63.24;99943.72;4905237;28;98526;-63
2022/09/18 06:26:05;;;;;;;0.98;0.20;;;;;;;11.45;62.50;99948.03;4921473;28;98679;-64
2022/09/18 06:28:31;;;;;;;1.45;0.20;;;;;;;11.53;62.81;99936.63;4939271;28;98819;-63
2022/09/18 06:31:03;;;;;;;5.93;0.47;;;;;;;11.68;62.48;99944.56;4940925;28;98358;-63
2022/09/18 06:33:30;;;;;;;5.38;0.20;;;;;;;11.88;62.29;99940.84;4919020;28;100917;-63
2022/09/18 06:35:59;;;;;;;1.65;0.20;;;;;;;11.91;62.18;99942.97;4910266;28;97902;-63
2022/09/18 06:38:27;;;;;;;2.22;0.20;;;;;;;11.96;62.18;99955.59;4923988;28;98571;-63
2022/09/18 06:40:53;;;;;;;1.42;0.20;;;;;;;11.99;62.17;99958.53;4928861;28;98648;-70
2022/09/18 06:43:24;;;;;;;1.75;0.20;;;;;;;12.01;62.07;99956.34;4905020;28;98249;-69
2022/09/18 06:45:52;;;;;;;1.40;0.30;;;;;;;12.01;62.64;99961.72;4939462;28;98090;-69
2022/09/18 06:48:18;;;;;;;0.40;0.10;;;;;;;12.11;62.08;99962.72;4939223;28;99701;-70
2022/09/18 06:50:54;;;;;;;2.20;0.40;;;;;;;12.28;61.75;99965.72;4936388;28;98220;-69
2022/09/18 06:53:20;;;;;;;1.80;0.20;;;;;;;12.49;61.36;99961.66;4935114;28;100113;-70
2022/09/18 06:55:47;;;;;;;2.70;0.50;;;;;;;12.60;61.50;99973.13;4932206;28;98448;-70
2022/09/18 06:58:17;;;;;;;1.38;0.22;;;;;;;12.80;61.16;99968.50;4923732;28;97959;-69
2022/09/18 07:00:45;;;;;;;5.78;0.77;;;;;;;12.94;61.27;99964.78;4921306;28;98421;-69
2022/09/18 07:03:12;;;;;;;3.60;0.47;;;;;;;13.03;61.03;99970.31;4935696;28;98404;-69
2022/09/18 07:05:41;;;;;;;1.77;0.40;;;;;;;13.13;60.52;99969.38;4924000;28;98630;-63
2022/09/18 07:08:08;;;;;;;1.55;0.20;;;;;;;13.29;60.40;99975.34;4896822;28;98358;-63
2022/09/18 07:10:35;;;;;;;2.63;0.30;;;;;;;13.42;60.41;99978.06;4923223;28;100306;-70
2022/09/18 07:13:03;;;;;;;22.83;12.57;;;;;;;13.58;60.11;99967.78;4922061;28;98075;-69
2022/09/18 07:15:29;;;;;;;4.35;1.52;;;;;;;13.62;59.97;99978.81;4936366;28;99621;-69
2022/09/18 07:18:00;;;;;;;7.97;3.75;;;;;;;13.89;59.01;99978.84;4950156;28;97897;-69
2022/09/18 07:20:28;;;;;;;5.05;0.40;;;;;;;14.04;59.64;99993.19;4943656;28;98064;-69
2022/09/18 07:22:59;;;;;;;3.67;0.30;;;;;;;14.49;58.39;99981.41;4955860;28;98261;-63
2022/09/18 07:25:26;;;;;;;2.38;0.30;;;;;;;14.26;59.03;99990.56;4970512;28;99397;-63
2022/09/18 07:27:53;;;;;;;2.65;0.35;;;;;;;14.02;59.46;99993.47;4960537;28;97531;-69
2022/09/18 07:30:21;;;;;;;6.50;1.10;;;;;;;13.84;59.66;99999.81;4964373;28;97633;-64
2022/09/18 07:32:47;;;;;;;2.38;0.50;;;;;;;13.68;59.94;99999.28;4969475;28;97713;-64
2022/09/18 07:35:14;;;;;;;2.15;0.70;;;;;;;13.47;60.24;100002.34;4956331;28;97908;-64
2022/09/18 07:37:40;;;;;;;2.05;0.32;;;;;;;13.31;60.45;100003.72;4979369;28;98074;-64
2022/09/18 07:40:11;;;;;;;2.45;0.30;;;;;;;13.29;60.38;99995.09;4961423;28;97954;-69
2022/09/18 07:42:38;;;;;;;1.40;0.30;;;;;;;13.57;60.05;99995.16;4976522;28;98341;-69
2022/09/18 07:45:05;;;;;;;1.13;0.20;;;;;;;13.85;59.25;99993.28;4976461;28;97635;-69
2022/09/18 07:47:32;;;;;;;2.45;0.68;;;;;;;13.72;59.93;99987.56;4978567;28;97281;-70
2022/09/18 07:49:58;;;;;;;4.95;0.30;;;;;;;13.75;59.73;99986.13;4943757;28;98304;-70
2022/09/18 07:52:25;;;;;;;2.25;0.47;;;;;;;14.43;58.50;99985.31;4980849;28;97828;-64
2022/09/18 07:54:51;;;;;;;1.77;0.20;;;;;;;14.81;57.71;99973.38;4974086;28;107142;-69
2022/09/18 07:57:19;;;;;;;2.33;0.30;;;;;;;14.96;57.34;99981.97;4961199;28;97428;-70
2022/09/18 07:59:46;;;;;;;1.02;0.20;;;;;;;14.72;58.17;99995.81;4953294;28;97968;-69
2022/09/18 08:02:12;;;;;;;1.05;0.20;;;;;;;14.84;57.67;99991.75;4955724;28;97595;-64
2022/09/18 08:04:39;;;;;;;2.40;0.28;;;;;;;15.30;56.93;99986.03;4956768;28;98087;-70
2022/09/18 08:07:06;;;;;;;1.08;0.10;;;;;;;15.12;57.61;99984.31;4957505;28;97755;-70
2022/09/18 08:09:32;;;;;;;1.65;0.50;;;;;;;15.27;57.03;99994.00;4942383;28;100167;-64
2022/09/18 08:11:59;;;;;;;1.48;0.50;;;;;;;15.36;56.70;99994.84;4965978;28;97841;-70
2022/09/18 08:14:25;;;;;;;1.52;0.50;;;;;;;15.25;57.27;99999.75;4966525;28;98043;-64
2022/09/18 08:16:51;;;;;;;2.42;0.38;;;;;;;15.84;55.87;99989.53;4982118;28;117828;-64
2022/09/18 08:19:18;;;;;;;2.13;0.30;;;;;;;16.51;54.75;99999.31;4965562;28;97624;-64
2022/09/18 08:21:44;;;;;;;2.95;0.30;;;;;;;16.84;54.29;99993.44;4982738;28;99570;-64
2022/09/18 08:24:10;;;;;;;0.57;0.15;;;;;;;17.50;53.21;99988.56;4949517;28;126646;-64
2022/09/18 08:26:37;;;;;;;2.25;0.20;;;;;;;17.99;52.53;99982.78;4965575;28;117718;-64
2022/09/18 08:29:05;;;;;;;1.08;0.30;;;;;;;18.61;51.64;99982.09;4942394;28;99679;-70
2022/09/18 08:31:31;;;;;;;3.40;0.10;;;;;;;19.08;51.46;99984.63;4964747;28;98712;-70
2022/09/18 08:33:57;;;;;;;1.75;0.20;;;;;;;19.58;50.75;99991.81;4960483;27;97647;-72
2022/09/18 08:36:23;;;;;;;1.10;0.10;;;;;;;19.39;50.96;99989.59;4966985;27;103501;-71
2022/09/18 08:38:54;;;;;;;3.45;0.20;;;;;;;20.07;50.22;99980.94;4977872;28;105514;-72
2022/09/18 08:41:49;;;;;;;1.42;0.20;;;;;;;20.19;50.63;99978.19;4946175;28;97638;-65
2022/09/18 08:44:23;;;;;;;0.93;0.10;;;;;;;19.73;51.15;99980.25;4984755;28;97917;-70
2022/09/18 08:47:00;;;;;;;0.45;0.10;;;;;;;19.79;50.64;99984.34;4981397;28;97823;-71
2022/09/18 08:49:49;;;;;;;0.30;0.10;;;;;;;20.68;48.67;99985.56;5009243;28;97701;-72
2022/09/18 08:52:22;;;;;;;0.70;0.10;;;;;;;21.79;48.36;99981.16;4997324;28;110947;-66
2022/09/18 08:55:03;;;;;;;0.85;0.20;;;;;;;21.78;48.40;99980.38;4961107;28;97612;-66
2022/09/18 08:57:41;;;;;;;1.48;0.20;;;;;;;21.72;48.54;99979.03;4989195;28;97369;-72
2022/09/18 09:00:30;;;;;;;0.73;0.00;;;;;;;21.12;49.14;99980.16;4990009;28;97698;-71
2022/09/18 09:03:19;;;;;;;1.58;0.10;;;;;;;21.65;48.04;99986.28;4982575;28;97889;-65
2022/09/18 09:05:58;;;;;;;1.00;0.30;;;;;;;21.77;47.01;99978.78;4948722;28;99483;-72
2022/09/18 09:08:31;;;;;;;0.75;0.10;;;;;;;22.64;46.30;99976.06;4965025;27;97797;-73
2022/09/18 09:11:13;;;;;;;2.28;0.15;;;;;;;22.09;47.54;99972.47;5015101;27;97620;-73
2022/09/18 09:13:51;;;;;;;1.55;0.10;;;;;;;21.94;47.52;99982.31;4999043;28;97949;-66
2022/09/18 09:16:44;;;;;;;1.55;0.10;;;;;;;21.76;47.72;99979.13;5002852;28;98989;-66
2022/09/18 09:19:57;;;;;;;0.95;0.10;;;;;;;22.28;46.31;99978.84;4976095;28;97705;-66
2022/09/18 09:23:00;;;;;;;0.70;0.10;;;;;;;22.21;46.76;99978.66;4957846;28;97536;-66
2022/09/18 09:26:00;;;;;;;0.90;0.10;;;;;;;21.52;47.34;99986.34;4960018;28;98119;-71
2022/09/18 09:28:50;;;;;;;5.32;0.63;;;;;;;21.51;46.36;99979.28;4994891;28;97381;-66
2022/09/18 09:31:18;;;;;;;2.97;0.47;;;;;;;21.84;45.52;99983.63;4996376;28;97852;-66
2022/09/18 09:34:11;;;;;;;2.35;0.25;;;;;;;21.72;46.53;99979.03;4960534;28;121754;-66
2022/09/18 09:36:37;;;;;;;2.47;0.30;;;;;;;22.91;44.05;99957.78;4974771;28;97849;-66
2022/09/18 09:39:51;;;;;;;0.90;0.15;;;;;;;23.27;44.94;99990.31;4945489;28;126541;-72
2022/09/18 09:42:43;;;;;;;3.28;0.20;;;;;;;24.07;43.62;99981.47;4914402;28;97716;-72
2022/09/18 09:45:42;;;;;;;1.05;0.20;;;;;;;24.81;42.75;99979.00;4954362;28;98039;-71
2022/09/18 09:48:25;;;;;;;1.95;0.13;;;;;;;23.86;44.09;99968.19;4980875;28;100056;-72
2022/09/18 09:51:35;;;;;;;1.15;0.10;;;;;;;23.77;42.93;99969.22;4996023;28;97952;-72
2022/09/18 09:54:01;;;;;;;3.47;1.10;;;;;;;24.04;42.31;99949.19;4961366;28;98455;-72
2022/09/18 09:56:41;;;;;;;8.40;3.85;;;;;;;24.08;42.08;99966.53;4949220;28;102503;-66
2022/09/18 09:59:23;;;;;;;4.60;1.48;;;;;;;25.84;40.58;99956.44;5006343;28;97807;-72
2022/09/18 10:02:09;;;;;;;1.80;0.33;;;;;;;27.28;39.02;99975.34;4988871;27;97939;-66
2022/09/18 10:04:49;;;;;;;1.50;0.20;;;;;;;28.38;37.98;99969.06;4982192;28;97871;-72
2022/09/18 10:07:34;;;;;;;1.13;0.20;;;;;;;29.94;36.17;99961.03;4959108;28;99782;-72
2022/09/18 10:10:29;;;;;;;1.67;0.20;;;;;;;30.68;35.41;99958.66;4989393;28;97629;-67
2022/09/18 10:13:14;;;;;;;1.08;0.10;;;;;;;29.73;36.92;99962.00;4951498;28;98133;-73
2022/09/18 10:15:48;;;;;;;1.52;0.28;;;;;;;27.20;39.68;99977.31;4964029;28;97689;-68
2022/09/18 10:18:40;;;;;;;2.90;1.00;;;;;;;25.38;41.31;99965.84;4947474;28;117916;-67
2022/09/18 10:21:19;;;;;;;;;;;;;;;24.20;43.44;99969.88;4963150;28;115769;-66
2022/09/18 10:24:08;;;;;;;2.85;0.20;;;;;;;22.99;43.78;99981.50;4957147;28;97440;-66
2022/09/18 10:26:45;;;;;;;0.47;0.10;;;;;;;23.57;41.88;99972.38;4985625;28;97892;-66
2022/09/18 10:29:12;;;;;;;1.02;0.05;;;;;;;26.87;37.02;99983.88;4956537;28;98226;-65
2022/09/18 10:31:58;;;;;;;1.20;0.10;;;;;;;29.10;35.86;99977.88;4958222;28;116923;-66
2022/09/18 10:34:30;;;;;;;1.75;0.10;;;;;;;27.93;37.50;99979.75;4973752;28;97674;-66
2022/09/18 10:37:04;;;;;;;0.73;0.10;;;;;;;28.96;35.96;99975.16;4996072;28;97348;-73
2022/09/18 10:39:37;;;;;;;1.23;0.10;;;;;;;30.60;34.49;99975.84;4970428;28;97921;-74
2022/09/18 10:42:15;;;;;;;1.45;0.30;;;;;;;31.60;34.23;99966.97;4956136;28;97919;-73
2022/09/18 10:44:52;;;;;;;2.20;0.20;;;;;;;31.40;33.48;99971.63;4979925;28;97651;-73
2022/09/18 10:47:20;;;;;;;0.38;0.10;;;;;;;32.34;32.69;99960.50;4978664;28;97682;-73
2022/09/18 10:50:16;;;;;;;2.20;0.10;;;;;;;32.77;33.00;99956.88;4956789;28;99595;-74
2022/09/18 10:52:48;;;;;;;1.27;0.20;;;;;;;32.12;33.68;99957.34;4986516;28;99866;-74
2022/09/18 10:55:23;;;;;;;5.25;0.30;;;;;;;31.52;34.13;99949.59;4972285;28;98295;-74
2022/09/18 10:58:14;;;;;;;0.60;0.00;;;;;;;29.24;36.53;99938.16;5011504;28;97479;-73
2022/09/18 11:01:02;;;;;;;1.15;0.10;;;;;;;27.31;37.70;99931.09;4978872;28;97654;-73
2022/09/18 11:03:58;;;;;;;1.02;0.10;;;;;;;25.66;39.08;99937.75;4953268;28;97782;-73
2022/09/18 11:06:27;;;;;;;1.35;0.13;;;;;;;24.14;39.54;99943.84;4994234;28;97938;-73
2022/09/18 11:08:57;;;;;;;1.52;0.10;;;;;;;23.14;40.48;99961.38;4962325;28;97854;-72
2022/09/18 11:11:35;;;;;;;0.30;0.00;;;;;;;22.34;41.67;99953.84;4990715;28;98047;-72
2022/09/18 11:14:27;;;;;;;1.10;0.43;;;;;;;21.78;41.78;99963.09;4958456;28;97665;-75
2022/09/18 11:17:00;;;;;;;0.82;0.20;;;;;;;21.11;42.57;99968.41;5005572;28;97510;-75
2022/09/18 11:19:37;;;;;;;1.58;0.10;;;;;;;20.73;42.94;99957.94;4968174;28;102871;-74
2022/09/18 11:22:26;;;;;;;0.32;0.10;;;;;;;20.93;42.38;99956.16;4971320;28;97702;-74
2022/09/18 11:25:25;;;;;;;1.27;0.20;;;;;;;20.55;42.91;99950.03;4983676;28;97577;-65
2022/09/18 11:27:54;;;;;;;1.30;0.00;;;;;;;23.33;39.22;99933.06;4980739;28;97609;-73
2022/09/18 11:30:26;;;;;;;0.55;0.08;;;;;;;23.32;39.82;99942.50;4955264;28;97455;-66
2022/09/18 11:32:59;;;;;;;;;;;;;;;23.60;39.94;99922.94;4974891;28;97753;-72
2022/09/18 11:35:28;;;;;;;2.75;0.95;;;;;;;23.20;40.99;99928.91;4958642;28;97987;-72
2022/09/18 11:37:59;;;;;;;15.43;7.30;;;;;;;24.94;38.78;99919.69;4961363;28;97954;-66
2022/09/18 11:40:49;;;;;;;1.77;0.50;;;;;;;27.45;35.74;99913.72;4953421;28;98167;-66
2022/09/18 11:43:34;;;;;;;1.77;0.60;;;;;;;28.66;34.74;99914.72;4970187;28;97904;-73
2022/09/18 11:46:22;;;;;;;1.58;0.30;;;;;;;29.43;34.58;99909.09;4978849;28;97716;-73
2022/09/18 11:49:09;;;;;;;1.27;0.20;;;;;;;28.30;36.00;99912.84;4998443;27;98557;-67
2022/09/18 11:51:51;;;;;;;1.35;0.32;;;;;;;29.54;34.36;99902.25;4978962;28;97885;-73
2022/09/18 11:54:42;;;;;;;2.92;0.10;;;;;;;29.74;34.63;99902.50;4959089;28;97737;-67
2022/09/18 11:57:44;;;;;;;1.70;0.33;;;;;;;29.96;34.31;99891.19;4971510;28;98315;-73
2022/09/18 12:00:12;;;;;;;0.77;0.10;;;;;;;27.28;36.74;99890.41;4976438;28;99917;-69